Impacts METAR Board INFO
IDs:

KJFK - New York/Kennedy Int, NY, US

Updated at: 2053 UTC 13 Dec 2017
Potential Impact None Slight Moderate High
Time13/08Z 13/09Z 13/10Z 13/11Z 13/12Z 13/13Z 13/14Z 13/15Z 13/16Z 13/17Z 13/18Z 13/19Z 13/20Z
VIS10 10 10 10 10 10 10 10 10 10 10 10 10
CIG-- -- -- -- -- -- -- 48 49 50 -- -- --
CoverSCTFEWFEWCLRFEWSCTSCTBKNBKNBKNSCTFEWFEW
FltCatVFRVFRVFRVFRVFRVFRVFRVFRVFRVFRVFRVFRVFR
WX--------------------------
WDir290290290280290280280290280290290290290
WSpd21 27 29 22 22 22 23 25 23 23 22 25 18
WGst29 34 36 33 32 31 37 35 34 32 30 31 27
Raw hourly METARs
KJFK 130751Z 29021G29KT 10SM SCT055 M05/M17 A2953 RMK AO2 PK WND 28030/0728 SLP998 T10501167
KJFK 130851Z 29027G34KT 10SM FEW055 M06/M16 A2951 RMK AO2 PK WND 28036/0759 SLP994 T10561161 50006
KJFK 130951Z 29029G36KT 10SM FEW055 M06/M16 A2951 RMK AO2 PK WND 28037/0931 SLP993 T10611161
KJFK 131051Z 28022G33KT 10SM CLR M06/M14 A2952 RMK AO2 PK WND 30038/1003 SLP997 T10611144
KJFK 131151Z 29022G32KT 10SM FEW042 M07/M14 A2954 RMK AO2 PK WND 27033/1059 SLP003 T10671144 11022 21067 53009
KJFK 131251Z 28022G31KT 10SM SCT046 M06/M15 A2956 RMK AO2 PK WND 29031/1248 SLP008 T10611150
KJFK 131351Z 28023G37KT 10SM SCT046 M06/M15 A2957 RMK AO2 PK WND 28038/1339 SLP014 T10561150
KJFK 131451Z 29025G35KT 10SM BKN048 BKN085 BKN250 M04/M14 A2958 RMK AO2 PK WND 27035/1443 SLP016 T10441144 51014
KJFK 131551Z 28023G34KT 10SM BKN049 BKN250 M03/M14 A2956 RMK AO2 PK WND 29036/1538 SLP011 VIRGA ALQDS T10331139
KJFK 131651Z 29023G32KT 10SM BKN050 BKN110 M02/M14 A2956 RMK AO2 PK WND 29039/1608 SLP008 VIRGA OHD AND NW-SE T10221139
KJFK 131751Z 29022G30KT 10SM SCT055 M01/M14 A2955 RMK AO2 PK WND 30034/1716 SLP007 T10061144 11006 21067 56010
KJFK 131851Z 29025G31KT 10SM FEW060 FEW250 00/M17 A2957 RMK AO2 PK WND 29038/1818 SLP013 T00001167
KJFK 131951Z 29018G27KT 10SM FEW060 FEW250 00/M16 A2959 RMK AO2 PK WND 27035/1923 SLP020 T00001156